Tiempo atmosférico en la estación meteorológica de Berga, Barcelona (690 m.)



Fecha
DESCASC
Temp. máxima en grados centígrados (hora)
DESCASC
Temp. mínima en grados centígrados (hora)
DESCASC
Temp. media en grados centígrados
DESCASC
Racha de viento máxima en m/sg (hora)
DESCASC
Velocidad máxima media en intervalos de 10 minutos(hora)
DESCASC
Precipitaciones diarias en mm
DESCASC
Precipitaciones de 00:00 a 06:00 en mm
DESCASC
Precipitaciones de 06:00 a 12:00 en mm
DESCASC
Precipitaciones de 12:00 a 18:00 en mm
DESCASC
Precipitaciones de 18:00 a 24:00 en mm
DESCASC
13-10-2019 24.4 (15:30) 14.4 (07:10) 19.4 7.22 (17:00) 3.89 (15:00) 0 0 0 0 0
12-10-2019 24.4 (15:50) 16.2 (08:30) 20.3 7.5 (16:00) 4.17 (14:10) 0 0 0 0 0
11-10-2019 24 (16:30) 8.6 (07:40) 16.3 7.22 (16:30) 3.89 (17:30) 0 0 0 0 0
10-10-2019 20.7 (15:40) 10.8 (00:00) 15.8 8.89 (16:50) 5.83 (16:50) 0.6 0.6 0 0 0
09-10-2019 22.4 (14:10) 12.2 (00:00) 17.3 8.61 (14:10) 5.28 (17:10) 0.4 0 0 0 0.4
08-10-2019 25.1 (16:50) 10.5 (00:00) 17.8 8.61 (17:10) 5.56 (16:50) 0 0 0 0 0
07-10-2019 22.5 (17:10) 9.5 (00:00) 16 5.28 (15:00) 3.61 (11:30) 0 0 0 0 0
06-10-2019 21.6 (17:20) 14.5 (00:00) 18.1 7.78 (16:30) 5 (16:50) 0 0 0 0 0
05-10-2019 23.3 (17:10) 11.9 (00:00) 17.6 8.33 (15:40) 4.72 (15:40) 0 0 0 0 0
04-10-2019 23.7 (16:30) 9.2 (00:00) 16.5 8.61 (16:40) 5.28 (17:00) 0 0 0 0 0
03-10-2019 22.5 (17:30) 10.2 (00:00) 16.3 6.67 (16:40) 3.33 (15:00) 0 0 0 0 0
02-10-2019 23.9 (15:30) 12.2 (00:00) 18 6.67 (19:10) 4.17 (15:20) 0 0 0 0 0
01-10-2019 27.7 (16:20) 13.6 (00:00) 20.7 10.83 (16:20) 6.94 (16:10) 0 0 0 0 0
30-09-2019 26.5 (16:20) 13.6 (00:00) 20.1 7.22 (17:00) 3.61 (10:50) 0 0 0 0 0
29-09-2019 28.7 (16:20) 11.6 (00:00) 20.2 12.5 (17:00) 7.22 (15:40) 0 0 0 0 0
28-09-2019 25.3 (16:50) 16.5 (00:00) 20.9 8.89 (13:40) 5.56 (13:30) 0 0 0 0 0
27-09-2019 27.3 (16:00) 13.4 (00:00) 20.3 10.56 (15:20) 6.67 (15:20) 0 0 0 0 0
26-09-2019 24.9 (16:20) 13 (00:00) 18.9 8.06 (17:00) 5 (17:20) 0 0 0 0 0
25-09-2019 22.6 (16:50) 14.4 (00:00) 18.5 11.39 (15:50) 7.22 (16:20) 0 0 0 0 0
24-09-2019 27.2 (15:20) 11.3 (00:00) 19.3 10 (16:40) 6.39 (17:00) 0 0 0 0 0
23-09-2019 22.4 (15:20) 13.5 (00:00) 17.9 10.28 (16:20) 7.22 (16:50) 0 0 0 0 0
22-09-2019 24.7 (15:30) 13.8 (00:00) 19.3 11.39 (15:50) 7.78 (15:50) 0 0 0 0 0
21-09-2019 22 (14:50) 16.6 (00:00) 19.3 7.78 (11:00) 4.72 (11:00) 0.2 0 0 0.2 0
20-09-2019 25.3 (16:50) 15.2 (00:00) 20.2 6.39 (04:10) 3.61 (01:50) 0 0 0 0 0
19-09-2019 27.5 (16:20) 14.2 (00:00) 20.8 8.33 (16:50) 5.28 (15:30) 17.8 0 0 11.4 6.4
18-09-2019 29.8 (16:20) 16.9 (00:00) 23.3 10.56 (23:20) 6.11 (23:20) 5.2 0 0 1 4.2
17-09-2019 29.6 (16:50) 16.4 (00:00) 23 6.11 (14:20) 3.33 (14:20) 0 0 0 0 0
16-09-2019 28.1 (16:50) 16.5 (00:00) 22.3 6.39 (06:10) 4.17 (14:20) 0 0 0 0 0

Gráficas

Temp. máximas Temp. mínimas Temp. medias Precipitaciones Rachas de viento máximas Velocidades máximas media en intervalos de 10 minutos

Datos horarios

Fecha y hora oficial Temperatura (ºC) Velocidad del viento (km/h) Dirección del viento Racha (km/h) Dirección de racha Precipitación (mm) Presión (hPa) Tendencia (hPa) Humedad (%)
2019-10-15 23:00:00 10 7 Este 13 Nordeste 0 -- -- 86
2019-10-15 22:00:00 11.2 4 Nordeste 13 Este 0 -- -- 79
2019-10-15 21:00:00 12 5 Este 11 Nordeste 0 -- -- 74
2019-10-15 20:00:00 13 4 Este 8 Sudeste 0 -- -- 69
2019-10-15 19:00:00 14.7 4 Este 15 Este 0 -- -- 63
2019-10-15 18:00:00 16.1 5 Sudoeste 23 Sudoeste 0 -- -- 60
2019-10-15 17:00:00 16.4 10 Sudoeste 23 Sudoeste 0 -- -- 58
2019-10-15 16:00:00 17.1 8 Sudeste 22 Sudoeste 0 -- -- 56
2019-10-15 15:00:00 16.5 8 Sudoeste 19 Sudoeste 0 -- -- 60
2019-10-15 14:00:00 15.3 8 Sur 19 Sudoeste 0 -- -- 63
2019-10-15 13:00:00 14.9 8 Sudoeste 18 Sudoeste 0 -- -- 70
2019-10-15 12:00:00 13.7 4 Sudoeste 10 Noroeste 0 -- -- 77
2019-10-15 11:00:00 11.1 3 Este 12 Sudoeste 0 -- -- 85
2019-10-15 10:00:00 9.6 6 Sudoeste 10 Sudoeste 0 -- -- 95
2019-10-15 09:00:00 9.2 3 Sudeste 8 Oeste 0 -- -- 94
2019-10-15 08:00:00 9.3 0 Calma 9 Este 0 -- -- 93
2019-10-15 07:00:00 10.1 3 Este 8 Este 0 -- -- 95
2019-10-15 06:00:00 10.5 5 Este 9 Nordeste 0 -- -- 94
2019-10-15 05:00:00 11.1 5 Sudeste 14 Sur 0 -- -- 93
2019-10-15 04:00:00 11.9 4 Este 8 Sur 0.2 -- -- 95
2019-10-15 03:00:00 12.1 2 Sudeste 17 Este 0 -- -- 94
2019-10-15 02:00:00 12.6 5 Este 9 Este 0.8 -- -- 94
2019-10-15 01:00:00 12.4 6 Este 14 Este 0 -- -- 92
2019-10-15 00:00:00 13.1 4 Nordeste 45 Oeste 4.6 -- -- 90
2019-10-14 23:00:00 15 6 Sudoeste 10 Sudoeste 0.2 -- -- 92
2019-10-14 22:00:00 15 6 Este 12 Este 0 -- -- 91
2019-10-14 21:00:00 15 6 Este 15 Nordeste 0 -- -- 91
2019-10-14 20:00:00 15.2 9 Este 20 Este 0.8 -- -- 90
2019-10-14 19:00:00 15.7 10 Este 21 Sudeste 0.4 -- -- 87
2019-10-14 18:00:00 16.2 7 Nordeste 31 Oeste 3.4 -- -- 89
2019-10-14 17:00:00 18.4 9 Oeste 41 Oeste 1.8 -- -- 75
2019-10-14 16:00:00 21.3 12 Sudoeste 24 Oeste 0 -- -- 58
2019-10-14 15:00:00 22.2 19 Oeste 31 Sudoeste 0 -- -- 58
2019-10-14 14:00:00 22.2 6 Oeste 15 Oeste 0 -- -- 57
2019-10-14 13:00:00 21.7 5 Sudoeste 13 Sudoeste 0 -- -- 63
2019-10-14 12:00:00 21 3 Noroeste 6 Noroeste 0 -- -- 65
2019-10-14 11:00:00 18.4 2 Este 14 Sudeste 0 -- -- 67
2019-10-14 10:00:00 15.8 10 Este 15 Este 0 -- -- 73
2019-10-14 09:00:00 13.6 7 Este 19 Sudeste 0 -- -- 83
2019-10-14 08:00:00 13.5 7 Nordeste 15 Nordeste 0 -- -- 86
2019-10-14 07:00:00 14 8 Este 15 Este 0 -- -- 87
2019-10-14 06:00:00 14.2 6 Este 12 Nordeste 0 -- -- 86
2019-10-14 05:00:00 14.5 9 Este 13 Nordeste 0 -- -- 88
2019-10-14 04:00:00 14.4 4 Este 7 Este 0 -- -- 89
2019-10-14 03:00:00 14.6 5 Este 9 Este 0 -- -- 90
2019-10-14 02:00:00 15 4 Este 7 Este 0 -- -- 91
2019-10-14 01:00:00 16 0 Calma 3 Este 0 -- -- 86
2019-10-14 00:00:00 16.8 2 Sudoeste 5 Este 0 -- -- 86
2019-10-13 23:00:00 17.6 3 Este 6 Nordeste 0 -- -- 83
2019-10-13 22:00:00 18.2 5 Sudoeste 12 Sudoeste 0 -- -- 82
2019-10-13 21:00:00 18.9 10 Sudoeste 17 Sudoeste 0 -- -- 78
2019-10-13 20:00:00 19.9 8 Sudoeste 17 Sudoeste 0 -- -- 73
2019-10-13 19:00:00 21.2 12 Sudoeste 19 Sudoeste 0 -- -- 68
2019-10-13 18:00:00 22.9 11 Sudoeste 24 Oeste 0 -- -- 59
2019-10-13 17:00:00 24.2 14 Sudoeste 26 Sudoeste 0 -- -- 50
2019-10-13 16:00:00 24.2 12 Sudoeste 22 Sudoeste 0 -- -- 49
2019-10-13 15:00:00 24 14 Sudoeste 24 Sudoeste 0 -- -- 52
2019-10-13 14:00:00 23.2 6 Sudoeste 18 Sudoeste 0 -- -- 54
2019-10-13 13:00:00 22.2 8 Sudoeste 16 Sudoeste 0 -- -- 60
2019-10-13 12:00:00 21.4 8 Sudoeste 14 Oeste 0 -- -- 63
2019-10-13 11:00:00 19.8 3 Sudoeste 12 Este 0 -- -- 66
2019-10-13 10:00:00 16.7 8 Este 18 Este 0 -- -- 75
2019-10-13 09:00:00 14.9 5 Este 17 Sudeste 0 -- -- 81
2019-10-13 08:00:00 14.8 8 Este 15 Nordeste 0 -- -- 83
2019-10-13 07:00:00 14.5 7 Este 14 Este 0 -- -- 86
2019-10-13 06:00:00 14.7 6 Este 14 Este 0 -- -- 86
2019-10-13 05:00:00 15 4 Este 16 Nordeste 0 -- -- 85
2019-10-13 04:00:00 14.8 8 Este 14 Este 0 -- -- 86
2019-10-13 03:00:00 15.7 5 Este 8 Este 0 -- -- 88
2019-10-13 02:00:00 16 4 Este 8 Sudoeste 0 -- -- 88
2019-10-13 01:00:00 16.2 4 Sudoeste 6 Sudoeste 0 -- -- 86
2019-10-13 00:00:00 17 0 Calma 4 Sur 0 -- -- 85
2019-10-12 23:00:00 17.6 2 Sur 8 Sudoeste 0 -- -- 83
2019-10-12 22:00:00 18.1 6 Sudoeste 17 Sudoeste 0 -- -- 83
2019-10-12 21:00:00 18.8 11 Sudoeste 16 Sudoeste 0 -- -- 81
2019-10-12 20:00:00 19.7 6 Sudoeste 17 Oeste 0 -- -- 76
2019-10-12 19:00:00 20.8 7 Sudoeste 15 Sudoeste 0 -- -- 69
2019-10-12 18:00:00 22 10 Sudoeste 23 Sudoeste 0 -- -- 61
2019-10-12 17:00:00 22.8 8 Sudoeste 24 Sudoeste 0 -- -- 61
2019-10-12 16:00:00 24.1 14 Sudoeste 27 Sudoeste 0 -- -- 57
2019-10-12 15:00:00 23.5 10 Sudoeste 24 Sudoeste 0 -- -- 59
2019-10-12 14:00:00 22.8 12 Sudoeste 22 Sudoeste 0 -- -- 63
2019-10-12 13:00:00 20.9 13 Sudoeste 21 Sudoeste 0 -- -- 71
2019-10-12 12:00:00 20 6 Oeste 21 Sudoeste 0 -- -- 75
2019-10-12 11:00:00 18.3 6 Oeste 10 Oeste 0 -- -- 83
2019-10-12 10:00:00 16.9 3 Este 6 Este 0 -- -- 89
2019-10-12 09:00:00 16.3 2 Noroeste 5 Sur 0 -- -- 91
2019-10-12 08:00:00 16.4 3 Sur 5 Sudeste 0 -- -- 92
2019-10-12 07:00:00 16.6 0 Calma 4 Sudoeste 0 -- -- 91
2019-10-12 06:00:00 16.8 3 Sudoeste 8 Este 0 -- -- 89
2019-10-12 05:00:00 17 2 Sur 6 Sudoeste 0 -- -- 89
2019-10-12 04:00:00 17 3 Este 5 Este 0 -- -- 89
2019-10-12 03:00:00 17.2 2 Sur 6 Sudoeste 0 -- -- 89
2019-10-12 02:00:00 17.3 3 Sudoeste 5 Sudoeste 0 -- -- 88
2019-10-12 01:00:00 17.2 3 Oeste 7 Sudoeste 0 -- -- 89
2019-10-12 00:00:00 17.4 2 Sudoeste 7 Sur 0 -- -- 89
2019-10-11 23:00:00 17.6 5 Sudoeste 10 Sur 0 -- -- 88
2019-10-11 22:00:00 18.2 5 Sudoeste 12 Sudoeste 0 -- -- 84
2019-10-11 21:00:00 18.7 5 Sudoeste 12 Oeste 0 -- -- 82
2019-10-11 20:00:00 19 5 Sudoeste 9 Sur 0 -- -- 80
2019-10-11 19:00:00 20.1 6 Sudoeste 14 Sudoeste 0 -- -- 75
2019-10-11 18:00:00 21.2 10 Sudoeste 22 Sur 0 -- -- 70
2019-10-11 17:00:00 23.2 13 Sudoeste 26 Sudoeste 0 -- -- 61
2019-10-11 16:00:00 23.6 9 Sudoeste 23 Sur 0 -- -- 57
2019-10-11 15:00:00 23.1 10 Sudoeste 23 Sudoeste 0 -- -- 54
2019-10-11 14:00:00 22.5 11 Sudoeste 22 Sudoeste 0 -- -- 55
2019-10-11 13:00:00 20 9 Oeste 18 Sudoeste 0 -- -- 64
2019-10-11 12:00:00 18.5 6 Sudoeste 12 Oeste 0 -- -- 62
2019-10-11 11:00:00 16 3 Nordeste 10 Nordeste 0 -- -- 63
2019-10-11 10:00:00 12.3 6 Este 13 Este 0 -- -- 74
2019-10-11 09:00:00 9.8 6 Este 15 Este 0 -- -- 83
2019-10-11 08:00:00 8.8 8 Este 14 Este 0 -- -- 88
2019-10-11 07:00:00 9 6 Este 13 Nordeste 0 -- -- 87
2019-10-11 06:00:00 9.5 8 Este 13 Este 0 -- -- 86
2019-10-11 05:00:00 9.8 6 Este 13 Este 0 -- -- 85
2019-10-11 04:00:00 10.1 5 Este 12 Este 0 -- -- 84
2019-10-11 03:00:00 10.8 6 Este 10 Este 0 -- -- 83
2019-10-11 02:00:00 11.3 5 Este 9 Este 0 -- -- 84
2019-10-11 01:00:00 12 4 Este 8 Este 0 -- -- 82
2019-10-11 00:00:00 12.9 3 Este 8 Este 0 -- -- 81
2019-10-10 23:00:00 12.8 3 Este 7 Este 0 -- -- 80
2019-10-10 22:00:00 13.7 3 Este 7 Nordeste 0 -- -- 79
2019-10-10 21:00:00 15.4 3 Este 8 Sudeste 0 -- -- 74
2019-10-10 20:00:00 16.8 4 Sudeste 11 Sur 0 -- -- 60
2019-10-10 19:00:00 18.6 4 Sudeste 24 Sudoeste 0 -- -- 55
2019-10-10 18:00:00 20.2 15 Sudoeste 30 Sudoeste 0 -- -- 51
2019-10-10 17:00:00 20.7 18 Sudoeste 32 Oeste 0 -- -- 48
2019-10-10 16:00:00 20.7 19 Oeste 31 Sudoeste 0 -- -- 49
2019-10-10 15:00:00 20.2 10 Sudoeste 25 Sudoeste 0 -- -- 47
2019-10-10 14:00:00 19.7 9 Sudoeste 20 Sudoeste 0 -- -- 47
2019-10-10 13:00:00 18.4 9 Sur 21 Sudoeste 0 -- -- 51
2019-10-10 12:00:00 17.4 4 Sudoeste 12 Sur 0 -- -- 61
2019-10-10 11:00:00 15.7 6 Sudoeste 12 Sudoeste 0 -- -- 71
2019-10-10 10:00:00 13.3 3 Este 9 Este 0 -- -- 86
2019-10-10 09:00:00 10.9 3 Este 7 Este 0 -- -- 94
2019-10-10 08:00:00 11.1 4 Este 9 Nordeste 0 -- -- 94
2019-10-10 07:00:00 11.8 3 Este 8 Este 0 -- -- 94
2019-10-10 06:00:00 11.7 4 Este 9 Este 0 -- -- 93
2019-10-10 05:00:00 12.2 4 Sudeste 11 Oeste 0 -- -- 92
2019-10-10 04:00:00 12.9 9 Oeste 15 Sudoeste 0 -- -- 94
2019-10-10 03:00:00 13.8 8 Oeste 14 Oeste 0 -- -- 95
2019-10-10 02:00:00 14.2 6 Sur 15 Sur 0 -- -- 95
2019-10-10 01:00:00 14.5 7 Sudoeste 24 Sudoeste 0.6 -- -- 94
2019-10-10 00:00:00 15.1 6 Sudoeste 17 Oeste 0.4 -- -- 93
2019-10-09 23:00:00 15.8 7 Sudoeste 18 Sudoeste 0 -- -- 91
2019-10-09 22:00:00 16.5 10 Sudoeste 19 Sudoeste 0 -- -- 89
2019-10-09 21:00:00 17.7 10 Sudoeste 24 Sudoeste 0 -- -- 85
2019-10-09 20:00:00 19 11 Sudoeste 22 Sudoeste 0 -- -- 81
2019-10-09 19:00:00 20.3 15 Sudoeste 24 Sudoeste 0 -- -- 74
2019-10-09 18:00:00 21.3 14 Oeste 28 Oeste 0 -- -- 65
2019-10-09 17:00:00 21.5 18 Sudoeste 27 Sudoeste 0 -- -- 65
2019-10-09 16:00:00 21.6 6 Sudoeste 23 Oeste 0 -- -- 65
2019-10-09 15:00:00 21.7 11 Sudoeste 31 Sudoeste 0 -- -- 65
2019-10-09 14:00:00 22.2 15 Sudoeste 26 Sudoeste 0 -- -- 64
2019-10-09 13:00:00 22 14 Sudoeste 23 Sudoeste 0 -- -- 65
2019-10-09 12:00:00 20.3 5 Sur 14 Oeste 0 -- -- 69
2019-10-09 11:00:00 19.5 6 Sudoeste 11 Sudoeste 0 -- -- 68
2019-10-09 10:00:00 16.2 6 Este 11 Este 0 -- -- 76
2019-10-09 09:00:00 12.7 2 Sudeste 9 Este 0 -- -- 83
2019-10-09 08:00:00 12.4 5 Este 10 Este 0 -- -- 83
2019-10-09 07:00:00 13 6 Este 12 Este 0 -- -- 80
2019-10-09 06:00:00 13.3 7 Este 11 Nordeste 0 -- -- 78
2019-10-09 05:00:00 13.7 8 Este 13 Este 0 -- -- 76
2019-10-09 04:00:00 13.8 8 Este 12 Nordeste 0 -- -- 76
2019-10-09 03:00:00 14.5 5 Nordeste 15 Este 0 -- -- 73
2019-10-09 02:00:00 15.1 7 Nordeste 13 Nordeste 0 -- -- 71
2019-10-09 01:00:00 14.8 6 Este 10 Este 0 -- -- 73
2019-10-09 00:00:00 15.5 5 Este 8 Nordeste 0 -- -- 75
2019-10-08 23:00:00 16.2 5 Este 8 Este 0 -- -- 81
2019-10-08 22:00:00 17.9 3 Este 5 Nordeste 0 -- -- 78
2019-10-08 21:00:00 19.2 2 Norte 9 Sudeste 0 -- -- 74
2019-10-08 20:00:00 20.4 4 Sudeste 12 Sudoeste 0 -- -- 69
2019-10-08 19:00:00 22.4 10 Sudoeste 26 Sudoeste 0 -- -- 61
2019-10-08 18:00:00 24.7 17 Sudoeste 31 Sudoeste 0 -- -- 36
2019-10-08 17:00:00 25 19 Sudoeste 30 Sudoeste 0 -- -- 38
2019-10-08 16:00:00 24.9 14 Sudoeste 25 Sudoeste 0 -- -- 38
2019-10-08 15:00:00 24 10 Oeste 22 Sudoeste 0 -- -- 38
2019-10-08 14:00:00 22.5 7 Oeste 15 Oeste 0 -- -- 42
2019-10-08 13:00:00 20.7 8 Oeste 17 Sudoeste 0 -- -- 51
2019-10-08 12:00:00 19.3 6 Oeste 13 Sudoeste 0 -- -- 61
2019-10-08 11:00:00 17.8 7 Oeste 13 Oeste 0 -- -- 67
2019-10-08 10:00:00 14.9 4 Este 10 Este 0 -- -- 64
2019-10-08 09:00:00 10.7 6 Este 11 Este 0 -- -- 76
2019-10-08 08:00:00 10.8 6 Este 11 Nordeste 0 -- -- 73
2019-10-08 07:00:00 11.1 6 Este 11 Este 0 -- -- 72
2019-10-08 06:00:00 11.4 6 Este 10 Este 0 -- -- 71
2019-10-08 05:00:00 11.7 7 Este 12 Este 0 -- -- 71
2019-10-08 04:00:00 11.8 6 Este 10 Este 0 -- -- 73
2019-10-08 03:00:00 12.4 6 Este 8 Este 0 -- -- 72
2019-10-08 02:00:00 13.7 6 Este 9 Este 0 -- -- 67
2019-10-08 01:00:00 14.9 3 Nordeste 7 Este 0 -- -- 63
2019-10-08 00:00:00 15.9 0 Calma 8 Sudoeste 0 -- -- 60
2019-10-07 23:00:00 17.1 3 Este 6 Nordeste 0 -- -- 54
2019-10-07 22:00:00 17.6 4 Sur 9 Sudoeste 0 -- -- 54
2019-10-07 21:00:00 17.9 2 Este 7 Este 0 -- -- 52
2019-10-07 20:00:00 18.7 4 Este 8 Sur 0 -- -- 50
2019-10-07 19:00:00 20.3 5 Oeste 14 Sudoeste 0 -- -- 46
2019-10-07 18:00:00 22.2 6 Sudoeste 17 Sudoeste 0 -- -- 39
2019-10-07 17:00:00 22.4 5 Sur 17 Sudoeste 0 -- -- 39
2019-10-07 16:00:00 21.2 6 Sur 17 Sur 0 -- -- 41
2019-10-07 15:00:00 20.5 10 Sudoeste 19 Sudoeste 0 -- -- 43
2019-10-07 14:00:00 19.7 7 Sur 16 Oeste 0 -- -- 47
2019-10-07 13:00:00 17.9 6 Sudoeste 17 Sudoeste 0 -- -- 57
2019-10-07 12:00:00 16.3 8 Sudoeste 18 Sudoeste 0 -- -- 60
2019-10-07 11:00:00 14.8 8 Oeste 19 Oeste 0 -- -- 71
2019-10-07 10:00:00 12.5 3 Oeste 6 Este 0 -- -- 79
2019-10-07 09:00:00 10.1 3 Este 9 Sudoeste 0 -- -- 85
2019-10-07 08:00:00 10 3 Sur 9 Este 0 -- -- 78
2019-10-07 07:00:00 10.5 3 Este 12 Este 0 -- -- 71
2019-10-07 06:00:00 10.9 3 Norte 13 Este 0 -- -- 80
2019-10-07 05:00:00 11.7 7 Este 10 Este 0 -- -- 86
2019-10-07 04:00:00 12.9 6 Este 13 Este 0 -- -- 84
2019-10-07 03:00:00 13.4 6 Este 11 Este 0 -- -- 85
2019-10-07 02:00:00 14.3 4 Este 9 Este 0 -- -- 84
2019-10-07 01:00:00 15 3 Noroeste 6 Este 0 -- -- 84
2019-10-07 00:00:00 15.6 3 Este 6 Este 0 -- -- 71
2019-10-06 23:00:00 16.3 2 Este 5 Sudeste 0 -- -- 66
2019-10-06 22:00:00 16.5 3 Este 6 Sudeste 0 -- -- 66
2019-10-06 21:00:00 17.6 3 Este 8 Sur 0 -- -- 64
2019-10-06 20:00:00 18.4 3 Sudeste 8 Sudeste 0 -- -- 64
2019-10-06 19:00:00 19 4 Sur 17 Sudoeste 0 -- -- 64
2019-10-06 18:00:00 20.5 8 Sudoeste 23 Oeste 0 -- -- 61
2019-10-06 17:00:00 21.5 12 Sudoeste 28 Sudoeste 0 -- -- 57
2019-10-06 16:00:00 21 11 Sudoeste 23 Sudoeste 0 -- -- 59
2019-10-06 15:00:00 19.9 6 Sudoeste 14 Sudoeste 0 -- -- 63
2019-10-06 14:00:00 18.1 4 Este 8 Este 0 -- -- 70
2019-10-06 13:00:00 17.1 3 Noroeste 7 Nordeste 0 -- -- 75
2019-10-06 12:00:00 16.1 2 Este 8 Oeste 0 -- -- 76
2019-10-06 11:00:00 16 5 Oeste 9 Sudoeste 0 -- -- 79
2019-10-06 10:00:00 15.5 3 Sudeste 7 Este 0 -- -- 78
2019-10-06 09:00:00 14.8 0 Calma 5 Sur 0 -- -- 86
2019-10-06 08:00:00 14.5 3 Sudoeste 5 Sudoeste 0 -- -- 85
2019-10-06 07:00:00 14.7 2 Este 5 Este 0 -- -- 84
2019-10-06 06:00:00 14.6 0 Calma 5 Sudoeste 0 -- -- 84
2019-10-06 05:00:00 14.9 3 Oeste 6 Oeste 0 -- -- 85
2019-10-06 04:00:00 15 3 Este 5 Este 0 -- -- 81
2019-10-06 03:00:00 15.5 2 Sur 5 Sudoeste 0 -- -- 86
2019-10-06 02:00:00 15.5 4 Oeste 6 Oeste 0 -- -- 88
2019-10-06 01:00:00 15.9 4 Sudoeste 8 Oeste 0 -- -- 89
2019-10-06 00:00:00 16.2 4 Sudoeste 9 Sudoeste 0 -- -- 88
2019-10-05 23:00:00 16.4 5 Oeste 9 Oeste 0 -- -- 87
2019-10-05 22:00:00 16.8 4 Oeste 8 Sudoeste 0 -- -- 83
2019-10-05 21:00:00 17.3 3 Sudoeste 9 Sudoeste 0 -- -- 81
2019-10-05 20:00:00 18.1 4 Sudoeste 17 Sudoeste 0 -- -- 76
2019-10-05 19:00:00 21 11 Sudoeste 21 Sudoeste 0 -- -- 64
2019-10-05 18:00:00 22.7 15 Oeste 26 Sudoeste 0 -- -- 45
2019-10-05 17:00:00 23.2 15 Sudoeste 27 Sudoeste 0 -- -- 47
2019-10-05 16:00:00 23.2 15 Sudoeste 30 Sudoeste 0 -- -- 49
2019-10-05 15:00:00 22.3 11 Oeste 21 Sudoeste 0 -- -- 54
2019-10-05 14:00:00 21 10 Sudoeste 21 Sudoeste 0 -- -- 56
2019-10-05 13:00:00 19.4 8 Oeste 18 Sudoeste 0 -- -- 63
2019-10-05 12:00:00 19 5 Sur 16 Sudoeste 0 -- -- 63
2019-10-05 11:00:00 17.1 6 Oeste 14 Sudoeste 0 -- -- 74
2019-10-05 10:00:00 13.5 0 Calma 6 Este 0 -- -- 80
2019-10-05 09:00:00 13.1 3 Este 8 Este 0 -- -- 81
2019-10-05 08:00:00 13.1 4 Este 10 Este 0 -- -- 81
2019-10-05 07:00:00 13.2 5 Este 9 Este 0 -- -- 80
2019-10-05 06:00:00 12 6 Este 9 Este 0 -- -- 84
2019-10-05 05:00:00 12.7 4 Este 10 Este 0 -- -- 82
2019-10-05 04:00:00 12.6 4 Este 10 Este 0 -- -- 78
2019-10-05 03:00:00 12.9 6 Este 9 Este 0 -- -- 76
2019-10-05 02:00:00 14.1 8 Nordeste 15 Este 0 -- -- 71
2019-10-05 01:00:00 13.9 7 Este 13 Este 0 -- -- 67
2019-10-05 00:00:00 14.5 5 Este 11 Nordeste 0 -- -- 63
2019-10-04 23:00:00 15.4 6 Este 16 Este 0 -- -- 57
2019-10-04 22:00:00 16.5 5 Este 12 Este 0 -- -- 54
2019-10-04 21:00:00 17.7 8 Este 13 Este 0 -- -- 49
2019-10-04 20:00:00 19.8 3 Nordeste 14 Sudoeste 0 -- -- 42
2019-10-04 19:00:00 22 9 Sudoeste 22 Sudoeste 0 -- -- 37
2019-10-04 18:00:00 23.2 14 Sudoeste 27 Sudoeste 0 -- -- 35
2019-10-04 17:00:00 23.7 19 Sudoeste 31 Sudoeste 0 -- -- 37
2019-10-04 16:00:00 23.6 13 Oeste 25 Sudoeste 0 -- -- 39
2019-10-04 15:00:00 22.3 8 Sudoeste 21 Sudoeste 0 -- -- 45
2019-10-04 14:00:00 21.3 10 Oeste 19 Sudoeste 0 -- -- 49
2019-10-04 13:00:00 20.2 9 Sudoeste 20 Sudoeste 0 -- -- 53
2019-10-04 12:00:00 19 8 Oeste 17 Sudoeste 0 -- -- 62
2019-10-04 11:00:00 17.8 5 Sur 13 Sudeste 0 -- -- 56
2019-10-04 10:00:00 14.3 5 Este 14 Nordeste 0 -- -- 62
2019-10-04 09:00:00 9.9 8 Este 12 Este 0 -- -- 76
2019-10-04 08:00:00 9.4 8 Este 16 Este 0 -- -- 77
2019-10-04 07:00:00 9.3 8 Este 13 Este 0 -- -- 78
2019-10-04 06:00:00 9.6 8 Este 15 Este 0 -- -- 78
2019-10-04 05:00:00 9.5 8 Este 13 Este 0 -- -- 80
2019-10-04 04:00:00 10.5 7 Este 14 Este 0 -- -- 76
2019-10-04 03:00:00 10.9 7 Este 12 Este 0 -- -- 75
2019-10-04 02:00:00 11.7 8 Este 13 Nordeste 0 -- -- 72
2019-10-04 01:00:00 12.2 6 Este 13 Este 0 -- -- 71
2019-10-04 00:00:00 13.2 5 Nordeste 11 Este 0 -- -- 67
2019-10-03 23:00:00 14.1 8 Este 13 Este 0 -- -- 65
2019-10-03 22:00:00 15.3 5 Este 9 Este 0 -- -- 60
2019-10-03 21:00:00 16.4 4 Este 7 Este 0 -- -- 57
2019-10-03 20:00:00 18.5 0 Calma 9 Sudoeste 0 -- -- 50
2019-10-03 19:00:00 21.1 8 Oeste 17 Sudoeste 0 -- -- 45
2019-10-03 18:00:00 22.2 9 Sudoeste 19 Sudoeste 0 -- -- 40
2019-10-03 17:00:00 22.1 6 Sur 24 Sudoeste 0 -- -- 40
2019-10-03 16:00:00 21.4 6 Sudoeste 19 Oeste 0 -- -- 43
2019-10-03 15:00:00 20.4 12 Sudoeste 22 Sudoeste 0 -- -- 44
2019-10-03 14:00:00 19.2 4 Sur 17 Sudoeste 0 -- -- 54
2019-10-03 13:00:00 17.7 5 Sudoeste 16 Oeste 0 -- -- 59
2019-10-03 12:00:00 15.9 6 Oeste 14 Oeste 0 -- -- 66
2019-10-03 11:00:00 13.6 3 Sur 7 Oeste 0 -- -- 73
2019-10-03 10:00:00 11.4 3 Sudoeste 7 Este 0 -- -- 73
2019-10-03 09:00:00 10.3 2 Este 8 Este 0 -- -- 73
2019-10-03 08:00:00 10.5 4 Este 7 Nordeste 0 -- -- 77
2019-10-03 07:00:00 10.6 0 Calma 8 Este 0 -- -- 81
2019-10-03 06:00:00 10.6 5 Este 7 Este 0 -- -- 78
2019-10-03 05:00:00 11.3 3 Este 7 Este 0 -- -- 74
2019-10-03 04:00:00 11.2 2 Este 10 Nordeste 0 -- -- 74
2019-10-03 03:00:00 12 4 Nordeste 10 Este 0 -- -- 70
2019-10-03 02:00:00 11.9 5 Este 11 Este 0 -- -- 70
2019-10-03 01:00:00 13.2 2 Nordeste 8 Este 0 -- -- 70
2019-10-03 00:00:00 14.8 2 Este 6 Este 0 -- -- 72
2019-10-02 23:00:00 15.4 3 Sudoeste 9 Oeste 0 -- -- 68
2019-10-02 22:00:00 16.6 7 Oeste 10 Oeste 0 -- -- 56
2019-10-02 21:00:00 18.6 0 Calma 23 Nordeste 0 -- -- 38
2019-10-02 20:00:00 19.9 8 Nordeste 24 Nordeste 0 -- -- 36
2019-10-02 19:00:00 22.3 4 Sudeste 12 Noroeste 0 -- -- 31
2019-10-02 18:00:00 22.8 3 Este 16 Sudoeste 0 -- -- 38
2019-10-02 17:00:00 23.7 9 Sudoeste 17 Sudoeste 0 -- -- 37
2019-10-02 16:00:00 22.9 10 Sudoeste 23 Sudoeste 0 -- -- 41
2019-10-02 15:00:00 23.1 12 Oeste 20 Sudoeste 0 -- -- 41
2019-10-02 14:00:00 22.8 6 Sudoeste 18 Sudoeste 0 -- -- 48
2019-10-02 13:00:00 20.6 5 Sudoeste 20 Sudoeste 0 -- -- 51
2019-10-02 12:00:00 19.2 6 Sudoeste 18 Sudoeste 0 -- -- 61
2019-10-02 11:00:00 17.7 9 Oeste 14 Sudoeste 0 -- -- 66
2019-10-02 10:00:00 16.6 2 Sur 6 Oeste 0 -- -- 71
2019-10-02 09:00:00 12.2 5 Este 8 Este 0 -- -- 87
2019-10-02 08:00:00 12.7 3 Sudeste 8 Este 0 -- -- 85
2019-10-02 07:00:00 13.4 3 Sudoeste 8 Sudoeste 0 -- -- 81
2019-10-02 06:00:00 14.4 3 Este 6 Sudeste 0 -- -- 79
2019-10-02 05:00:00 15.9 4 Sudeste 8 Este 0 -- -- 75
2019-10-02 04:00:00 17 3 Este 8 Este 0 -- -- 84
2019-10-02 03:00:00 17.3 3 Sudeste 10 Sudeste 0 -- -- 83
2019-10-02 02:00:00 17.7 3 Oeste 8 Sudoeste 0 -- -- 81
2019-10-02 01:00:00 18 3 Este 8 Nordeste 0 -- -- 78
2019-10-02 00:00:00 18.8 5 Nordeste 9 Nordeste 0 -- -- 75
2019-10-01 23:00:00 19.7 4 Nordeste 11 Este 0 -- -- 72
2019-10-01 22:00:00 20.4 4 Este 15 Sudoeste 0 -- -- 63
2019-10-01 21:00:00 22.3 9 Sudoeste 21 Oeste 0 -- -- 57
2019-10-01 20:00:00 23.4 12 Oeste 23 Oeste 0 -- -- 51
2019-10-01 19:00:00 24.8 16 Oeste 29 Oeste 0 -- -- 45
2019-10-01 18:00:00 26.8 22 Oeste 37 Oeste 0 -- -- 38
2019-10-01 17:00:00 27.7 19 Oeste 39 Sudoeste 0 -- -- 34
2019-10-01 16:00:00 27.2 22 Sudoeste 37 Sudoeste 0 -- -- 33
2019-10-01 15:00:00 27.5 22 Sudoeste 30 Sudoeste 0 -- -- 34
2019-10-01 14:00:00 25.8 8 Sudoeste 18 Sudoeste 0 -- -- 47
2019-10-01 13:00:00 24.4 10 Sudoeste 17 Sudoeste 0 -- -- 52
2019-10-01 12:00:00 23.2 6 Sudoeste 12 Sudoeste 0 -- -- 54
2019-10-01 11:00:00 21.2 4 Sudoeste 8 Sudoeste 0 -- -- 60
2019-10-01 10:00:00 17.6 3 Este 9 Este 0 -- -- 66
2019-10-01 09:00:00 14.3 2 Este 9 Nordeste 0 -- -- 76
2019-10-01 08:00:00 14 4 Nordeste 15 Este 0 -- -- 76
2019-10-01 07:00:00 13.9 8 Este 15 Este 0 -- -- 79
2019-10-01 06:00:00 13.6 4 Nordeste 10 Este 0 -- -- 84
2019-10-01 05:00:00 13.9 4 Nordeste 13 Este 0 -- -- 84
2019-10-01 04:00:00 14.3 5 Este 10 Este 0 -- -- 85
2019-10-01 03:00:00 15.2 4 Este 9 Este 0 -- -- 84
2019-10-01 02:00:00 16.3 5 Este 13 Este 0 -- -- 85
2019-10-01 01:00:00 17.4 4 Este 7 Sudoeste 0 -- -- 86
2019-10-01 00:00:00 17.9 4 Sudoeste 6 Oeste 0 -- -- 87
2019-09-30 23:00:00 18 0 Calma 4 Sur 0 -- -- 86
2019-09-30 22:00:00 18.9 3 Sudoeste 10 Sur 0 -- -- 82
2019-09-30 21:00:00 20 3 Sudoeste 9 Sudoeste 0 -- -- 77
2019-09-30 20:00:00 21.5 7 Sudoeste 13 Sudoeste 0 -- -- 71
2019-09-30 19:00:00 23.6 7 Sudoeste 19 Sudoeste 0 -- -- 63
2019-09-30 18:00:00 25.1 12 Sudoeste 22 Sudoeste 0 -- -- 58
2019-09-30 17:00:00 26.1 12 Sudoeste 26 Sudoeste 0 -- -- 54
2019-09-30 16:00:00 26 8 Sur 19 Sur 0 -- -- 54
2019-09-30 15:00:00 24.7 7 Sudoeste 21 Oeste 0 -- -- 58
2019-09-30 14:00:00 23.9 6 Sudoeste 19 Sudoeste 0 -- -- 61
2019-09-30 13:00:00 21.3 7 Sudoeste 18 Oeste 0 -- -- 68
2019-09-30 12:00:00 22.3 12 Sudoeste 24 Sudoeste 0 -- -- 65
2019-09-30 11:00:00 20.6 12 Sudoeste 18 Sudoeste 0 -- -- 64
2019-09-30 10:00:00 18.1 4 Este 9 Este 0 -- -- 67
2019-09-30 09:00:00 14 7 Este 13 Este 0 -- -- 81
2019-09-30 08:00:00 14 8 Este 14 Este 0 -- -- 78
2019-09-30 07:00:00 15.2 9 Este 16 Nordeste 0 -- -- 73
2019-09-30 06:00:00 15.4 6 Este 15 Nordeste 0 -- -- 72
2019-09-30 05:00:00 16.1 9 Este 18 Este 0 -- -- 70
2019-09-30 04:00:00 17.1 9 Nordeste 15 Nordeste 0 -- -- 66
2019-09-30 03:00:00 17 8 Este 16 Nordeste 0 -- -- 66
2019-09-30 02:00:00 18.2 10 Nordeste 20 Nordeste 0 -- -- 62
2019-09-30 01:00:00 18.5 6 Este 12 Este 0 -- -- 63
2019-09-30 00:00:00 19.2 7 Este 14 Este 0 -- -- 61
2019-09-29 23:00:00 19.6 6 Este 18 Este 0 -- -- 59
2019-09-29 22:00:00 20.4 9 Este 16 Este 0 -- -- 58
2019-09-29 21:00:00 21.6 4 Este 17 Sudoeste 0 -- -- 50
2019-09-29 20:00:00 24.1 10 Sur 24 Oeste 0 -- -- 43
2019-09-29 19:00:00 26 18 Sudoeste 36 Oeste 0 -- -- 45
2019-09-29 18:00:00 27.2 25 Oeste 45 Sudoeste 0 -- -- 41
2019-09-29 17:00:00 28.1 24 Sudoeste 45 Sudoeste 0 -- -- 35
2019-09-29 16:00:00 28.6 23 Oeste 39 Sudoeste 0 -- -- 32
2019-09-29 15:00:00 27.7 12 Sudoeste 22 Sudoeste 0 -- -- 39
2019-09-29 14:00:00 24.8 6 Sudoeste 16 Sudoeste 0 -- -- 56
2019-09-29 13:00:00 22.7 8 Oeste 14 Oeste 0 -- -- 60
2019-09-29 12:00:00 20.6 6 Sudoeste 12 Sudoeste 0 -- -- 67
2019-09-29 11:00:00 18.9 7 Sudoeste 10 Oeste 0 -- -- 71
2019-09-29 10:00:00 16.1 6 Sudoeste 10 Este 0 -- -- 79
2019-09-29 09:00:00 12.4 5 Nordeste 11 Este 0 -- -- 87
2019-09-29 08:00:00 11.7 7 Este 12 Este 0 -- -- 90
2019-09-29 07:00:00 12 5 Nordeste 12 Este 0 -- -- 90
2019-09-29 06:00:00 12.4 6 Este 10 Este 0 -- -- 90
2019-09-29 05:00:00 13 3 Este 12 Nordeste 0 -- -- 89
2019-09-29 04:00:00 13.3 6 Este 11 Nordeste 0 -- -- 89
2019-09-29 03:00:00 13.7 4 Este 9 Este 0 -- -- 89
2019-09-29 02:00:00 14.5 5 Este 9 Este 0 -- -- 88
2019-09-29 01:00:00 15.1 4 Este 7 Este 0 -- -- 87
2019-09-29 00:00:00 16.5 2 Este 5 Este 0 -- -- 83
2019-09-28 23:00:00 17.1 3 Este 5 Este 0 -- -- 80
2019-09-28 22:00:00 18.4 3 Sur 6 Sur 0 -- -- 75
2019-09-28 21:00:00 19.2 4 Sudoeste 12 Sudoeste 0 -- -- 73
2019-09-28 20:00:00 20.3 4 Sur 19 Sudoeste 0 -- -- 69
2019-09-28 19:00:00 22.2 11 Sudoeste 21 Sur 0 -- -- 61
2019-09-28 18:00:00 24 7 Sudoeste 27 Sudoeste 0 -- -- 57
2019-09-28 17:00:00 25.1 17 Sudoeste 30 Sudoeste 0 -- -- 54
2019-09-28 16:00:00 24.8 19 Sudoeste 31 Sudoeste 0 -- -- 55
2019-09-28 15:00:00 24.6 17 Sudoeste 28 Sudoeste 0 -- -- 55
2019-09-28 14:00:00 24.1 18 Sudoeste 32 Sudoeste 0 -- -- 57
2019-09-28 13:00:00 23.2 19 Sudoeste 30 Sudoeste 0 -- -- 60
2019-09-28 12:00:00 21 15 Sudoeste 25 Sudoeste 0 -- -- 70
2019-09-28 11:00:00 20.3 8 Sudoeste 14 Sur 0 -- -- 74
2019-09-28 10:00:00 17.6 0 Calma 9 Este 0 -- -- 81
2019-09-28 09:00:00 16.7 4 Este 9 Este 0 -- -- 81
2019-09-28 08:00:00 16.6 4 Este 12 Este 0 -- -- 81
2019-09-28 07:00:00 16.6 5 Este 8 Este 0 -- -- 83
2019-09-28 06:00:00 16.7 4 Este 8 Este 0 -- -- 84
2019-09-28 05:00:00 17.9 3 Nordeste 6 Este 0 -- -- 85
2019-09-28 04:00:00 18.8 3 Sudoeste 4 Sur 0 -- -- 84
2019-09-28 03:00:00 19 3 Sudoeste 6 Sudoeste 0 -- -- 88
2019-09-28 02:00:00 19.2 3 Oeste 5 Oeste 0 -- -- 86
2019-09-28 01:00:00 19.4 0 Calma 9 Oeste 0 -- -- 87
2019-09-28 00:00:00 19.9 2 Oeste 6 Sudoeste 0 -- -- 86
2019-09-27 23:00:00 20.3 3 Sudoeste 10 Sudoeste 0 -- -- 85
2019-09-27 22:00:00 20.7 6 Oeste 10 Sudoeste 0 -- -- 82
2019-09-27 21:00:00 21.3 6 Sudoeste 13 Sudoeste 0 -- -- 79
2019-09-27 20:00:00 22.1 10 Sudoeste 21 Sudoeste 0 -- -- 74
2019-09-27 19:00:00 24.6 10 Sudoeste 23 Oeste 0 -- -- 64
2019-09-27 18:00:00 26.6 18 Sudoeste 32 Sudoeste 0 -- -- 42
2019-09-27 17:00:00 27.1 22 Oeste 34 Oeste 0 -- -- 39
2019-09-27 16:00:00 27.3 22 Sudoeste 38 Sudoeste 0 -- -- 40
2019-09-27 15:00:00 26.8 18 Sudoeste 32 Sudoeste 0 -- -- 48
2019-09-27 14:00:00 24.7 6 Sur 19 Sudoeste 0 -- -- 52
2019-09-27 13:00:00 23.5 9 Sudoeste 16 Oeste 0 -- -- 57
2019-09-27 12:00:00 22.1 7 Sudoeste 14 Sudoeste 0 -- -- 60
2019-09-27 11:00:00 21.5 6 Sudoeste 10 Sudoeste 0 -- -- 64
2019-09-27 10:00:00 17.6 5 Este 11 Nordeste 0 -- -- 71
2019-09-27 09:00:00 14.3 6 Este 14 Este 0 -- -- 80
2019-09-27 08:00:00 13.5 7 Este 13 Este 0 -- -- 82
2019-09-27 07:00:00 13.6 5 Nordeste 13 Este 0 -- -- 81
2019-09-27 06:00:00 13.8 7 Este 14 Nordeste 0 -- -- 81
2019-09-27 05:00:00 14 7 Este 14 Este 0 -- -- 80
2019-09-27 04:00:00 14.7 8 Este 17 Nordeste 0 -- -- 77
2019-09-27 03:00:00 14.6 6 Este 12 Este 0 -- -- 78
2019-09-27 02:00:00 15.1 7 Este 13 Este 0 -- -- 76
2019-09-27 01:00:00 15.7 5 Este 10 Este 0 -- -- 74
2019-09-27 00:00:00 16.4 5 Este 10 Nordeste 0 -- -- 71
2019-09-26 23:00:00 17.3 4 Este 8 Este 0 -- -- 68
2019-09-26 22:00:00 18.1 5 Este 8 Este 0 -- -- 65
2019-09-26 21:00:00 20 5 Este 8 Este 0 -- -- 57
2019-09-26 20:00:00 21.9 3 Sudeste 14 Sudoeste 0 -- -- 50
2019-09-26 19:00:00 23.9 10 Sudoeste 24 Sudoeste 0 -- -- 45
2019-09-26 18:00:00 24.6 15 Sudoeste 28 Sudoeste 0 -- -- 43
2019-09-26 17:00:00 24.9 17 Sudoeste 29 Sudoeste 0 -- -- 43
2019-09-26 16:00:00 24.8 14 Sudoeste 26 Sudoeste 0 -- -- 45
2019-09-26 15:00:00 24 9 Sudoeste 22 Sudoeste 0 -- -- 48
2019-09-26 14:00:00 22.8 10 Oeste 22 Sudoeste 0 -- -- 54
2019-09-26 13:00:00 21.5 7 Sudoeste 15 Sudoeste 0 -- -- 58
2019-09-26 12:00:00 20.3 9 Oeste 13 Sudoeste 0 -- -- 63
2019-09-26 11:00:00 19.5 6 Oeste 10 Sudoeste 0 -- -- 69
2019-09-26 10:00:00 17.2 4 Este 10 Este 0 -- -- 72
2019-09-26 09:00:00 13.9 4 Este 14 Nordeste 0 -- -- 84
2019-09-26 08:00:00 13 4 Este 7 Este 0 -- -- 87
2019-09-26 07:00:00 13.1 4 Este 10 Nordeste 0 -- -- 87
2019-09-26 06:00:00 13.5 0 Calma 6 Nordeste 0 -- -- 85
2019-09-26 05:00:00 13.9 4 Nordeste 9 Este 0 -- -- 88
2019-09-26 04:00:00 14.9 2 Este 6 Sudeste 0 -- -- 88
2019-09-26 03:00:00 15.3 3 Este 5 Este 0 -- -- 88
2019-09-26 02:00:00 15.7 2 Sudeste 6 Sur 0 -- -- 88
2019-09-26 01:00:00 15.8 2 Sudoeste 6 Este 0 -- -- 88
2019-09-26 00:00:00 16 2 Noroeste 5 Este 0 -- -- 86
2019-09-25 23:00:00 16.2 3 Este 6 Este 0 -- -- 83
2019-09-25 22:00:00 16.9 3 Este 14 Sur 0 -- -- 79
2019-09-25 21:00:00 18.6 11 Sudoeste 27 Sudoeste 0 -- -- 65
2019-09-25 20:00:00 19.3 17 Sudoeste 25 Sudoeste 0 -- -- 50
2019-09-25 19:00:00 20.3 17 Sudoeste 35 Sudoeste 0 -- -- 48
2019-09-25 18:00:00 21.5 22 Sudoeste 36 Sudoeste 0 -- -- 45
2019-09-25 17:00:00 22.5 23 Sudoeste 41 Sudoeste 0 -- -- 45
2019-09-25 16:00:00 21.4 23 Oeste 41 Sudoeste 0 -- -- 45
2019-09-25 15:00:00 22.4 20 Sudoeste 33 Sudoeste 0 -- -- 48
2019-09-25 14:00:00 22.1 19 Sudoeste 32 Sudoeste 0 -- -- 55
2019-09-25 13:00:00 21.2 18 Sudoeste 26 Sudoeste 0 -- -- 62
2019-09-25 12:00:00 19.1 8 Sudoeste 17 Sudoeste 0 -- -- 70
2019-09-25 11:00:00 19 6 Sudoeste 12 Sudoeste 0 -- -- 68
2019-09-25 10:00:00 18.4 5 Sudoeste 9 Sudoeste 0 -- -- 70
2019-09-25 09:00:00 15.3 4 Este 11 Nordeste 0 -- -- 80
2019-09-25 08:00:00 14.4 6 Este 11 Este 0 -- -- 80
2019-09-25 07:00:00 14.7 6 Este 12 Este 0 -- -- 78
2019-09-25 06:00:00 15.2 7 Este 12 Este 0 -- -- 77
2019-09-25 05:00:00 15.7 6 Este 11 Este 0 -- -- 75
2019-09-25 04:00:00 16.4 3 Este 15 Nordeste 0 -- -- 73
2019-09-25 03:00:00 16.6 8 Este 15 Nordeste 0 -- -- 72
2019-09-25 02:00:00 16.6 6 Este 13 Nordeste 0 -- -- 72
2019-09-25 01:00:00 17.7 5 Nordeste 12 Nordeste 0 -- -- 68
2019-09-25 00:00:00 18.1 7 Este 13 Este 0 -- -- 67
2019-09-24 23:00:00 18.9 6 Este 22 Este 0 -- -- 62
2019-09-24 22:00:00 20.1 8 Nordeste 14 Nordeste 0 -- -- 56
2019-09-24 21:00:00 21.8 4 Nordeste 19 Sudoeste 0 -- -- 48
2019-09-24 20:00:00 22.8 12 Oeste 28 Sudoeste 0 -- -- 45
2019-09-24 19:00:00 25 21 Oeste 33 Sudoeste 0 -- -- 41
2019-09-24 18:00:00 26 22 Oeste 30 Oeste 0 -- -- 40
2019-09-24 17:00:00 26.3 23 Oeste 36 Oeste 0 -- -- 41
2019-09-24 16:00:00 26.9 18 Oeste 27 Sudoeste 0 -- -- 40
2019-09-24 15:00:00 26.8 7 Sudoeste 20 Sudoeste 0 -- -- 41
2019-09-24 14:00:00 25 4 Nordeste 15 Este 0 -- -- 43
2019-09-24 13:00:00 22.9 6 Nordeste 15 Este 0 -- -- 48
2019-09-24 12:00:00 20.5 5 Este 12 Nordeste 0 -- -- 55
2019-09-24 11:00:00 18.4 2 Sudoeste 9 Sudoeste 0 -- -- 62
2019-09-24 10:00:00 16 3 Este 8 Este 0 -- -- 69
2019-09-24 09:00:00 12.5 4 Este 10 Este 0 -- -- 83
2019-09-24 08:00:00 11.6 5 Este 12 Este 0 -- -- 83
2019-09-24 07:00:00 11.3 6 Este 13 Nordeste 0 -- -- 84
2019-09-24 06:00:00 11.8 4 Nordeste 10 Este 0 -- -- 82
2019-09-24 05:00:00 12.1 5 Este 12 Este 0 -- -- 81
2019-09-24 04:00:00 12.5 6 Este 11 Este 0 -- -- 79
2019-09-24 03:00:00 12.9 7 Este 12 Este 0 -- -- 77
2019-09-24 02:00:00 13.3 5 Este 9 Este 0 -- -- 76
2019-09-24 01:00:00 14.4 6 Este 14 Este 0 -- -- 70
2019-09-24 00:00:00 14.6 5 Nordeste 14 Este 0 -- -- 70
2019-09-23 23:00:00 15.4 6 Este 13 Nordeste 0 -- -- 66
2019-09-23 22:00:00 16.5 7 Nordeste 14 Nordeste 0 -- -- 60
2019-09-23 21:00:00 17.5 4 Este 13 Sudoeste 0 -- -- 55
2019-09-23 20:00:00 18.8 5 Sur 25 Oeste 0 -- -- 50
2019-09-23 19:00:00 20.4 17 Oeste 32 Oeste 0 -- -- 46
2019-09-23 18:00:00 21.4 21 Oeste 32 Sudoeste 0 -- -- 44
2019-09-23 17:00:00 21.8 24 Oeste 37 Sudoeste 0 -- -- 44
2019-09-23 16:00:00 22.3 20 Sudoeste 36 Sudoeste 0 -- -- 45
2019-09-23 15:00:00 21.7 21 Oeste 36 Sudoeste 0 -- -- 47
2019-09-23 14:00:00 21.4 20 Sudoeste 32 Sudoeste 0 -- -- 44
2019-09-23 13:00:00 20.1 6 Sur 18 Oeste 0 -- -- 61
2019-09-23 12:00:00 18.2 5 Sudoeste 13 Sudoeste 0 -- -- 70
2019-09-23 11:00:00 17.3 6 Sudoeste 12 Sudoeste 0 -- -- 69
2019-09-23 10:00:00 15.4 2 Este 6 Este 0 -- -- 75
2019-09-23 09:00:00 13.8 2 Nordeste 5 Este 0 -- -- 87
2019-09-23 08:00:00 13.5 3 Oeste 4 Sudoeste 0 -- -- 90
2019-09-23 07:00:00 13.7 2 Este 6 Este 0 -- -- 91
2019-09-23 06:00:00 13.8 4 Este 5 Este 0 -- -- 90
2019-09-23 05:00:00 14.3 3 Nordeste 9 Este 0 -- -- 89
2019-09-23 04:00:00 15.1 5 Este 8 Este 0 -- -- 86
2019-09-23 03:00:00 15.9 4 Este 8 Este 0 -- -- 84
2019-09-23 02:00:00 16 3 Este 12 Nordeste 0 -- -- 84
2019-09-23 01:00:00 16.3 5 Nordeste 13 Este 0 -- -- 84
2019-09-23 00:00:00 16.2 5 Este 10 Nordeste 0 -- -- 88
2019-09-22 23:00:00 17.4 2 Norte 10 Sudeste 0 -- -- 81
2019-09-22 22:00:00 18.6 4 Este 26 Oeste 0 -- -- 77
2019-09-22 21:00:00 19.9 9 Sudoeste 15 Sudoeste 0 -- -- 73
2019-09-22 20:00:00 20.9 6 Oeste 16 Sudoeste 0 -- -- 65
2019-09-22 19:00:00 22.3 13 Oeste 28 Oeste 0 -- -- 58
2019-09-22 18:00:00 22.8 10 Oeste 33 Sudoeste 0 -- -- 60
2019-09-22 17:00:00 23.6 18 Sudoeste 35 Sudoeste 0 -- -- 58
2019-09-22 16:00:00 24.4 25 Sudoeste 41 Sudoeste 0 -- -- 55
2019-09-22 15:00:00 23.4 19 Oeste 37 Sudoeste 0 -- -- 59
2019-09-22 14:00:00 22.7 4 Noroeste 21 Sudoeste 0 -- -- 65
2019-09-22 13:00:00 20.2 5 Noroeste 12 Noroeste 0 -- -- 81
2019-09-22 12:00:00 18.2 4 Noroeste 11 Sudoeste 0 -- -- 85
2019-09-22 11:00:00 17.1 5 Sudoeste 9 Sudoeste 0 -- -- 85
2019-09-22 10:00:00 16.6 4 Oeste 7 Oeste 0 -- -- 88
2019-09-22 09:00:00 14.7 3 Este 7 Nordeste 0 -- -- 92
2019-09-22 08:00:00 13.8 4 Este 8 Este 0 -- -- 93
2019-09-22 07:00:00 14.3 2 Nordeste 8 Este 0 -- -- 92
2019-09-22 06:00:00 14.6 2 Este 11 Nordeste 0 -- -- 91
2019-09-22 05:00:00 14.9 3 Nordeste 8 Este 0 -- -- 91
2019-09-22 04:00:00 15.4 4 Este 6 Nordeste 0 -- -- 89
2019-09-22 03:00:00 16 4 Este 9 Nordeste 0 -- -- 88
2019-09-22 02:00:00 16.2 2 Este 8 Este 0 -- -- 88
2019-09-22 01:00:00 16.2 4 Este 6 Este 0 -- -- 89
2019-09-22 00:00:00 16.8 2 Este 6 Este 0 -- -- 88
2019-09-21 23:00:00 16.8 3 Sudoeste 11 Sudoeste 0 -- -- 88
2019-09-21 22:00:00 17.3 3 Oeste 9 Sudoeste 0 -- -- 88
2019-09-21 21:00:00 18.1 5 Sudoeste 8 Sudoeste 0 -- -- 85
2019-09-21 20:00:00 18.8 3 Oeste 8 Oeste 0 -- -- 82
2019-09-21 19:00:00 19.9 9 Sudoeste 14 Oeste 0 -- -- 79
2019-09-21 18:00:00 19.8 3 Norte 17 Oeste 0.2 -- -- 78
2019-09-21 17:00:00 20.6 7 Oeste 19 Sudoeste 0 -- -- 74
2019-09-21 16:00:00 21.6 3 Este 23 Sudoeste 0 -- -- 64
2019-09-21 15:00:00 21.8 12 Oeste 16 Oeste 0 -- -- 72
2019-09-21 14:00:00 21.6 3 Norte 11 Nordeste 0 -- -- 68
2019-09-21 13:00:00 20.4 3 Este 14 Sudoeste 0 -- -- 74
2019-09-21 12:00:00 21.3 6 Sudoeste 20 Este 0 -- -- 73
2019-09-21 11:00:00 17.5 17 Nordeste 28 Nordeste 0 -- -- 78
2019-09-21 10:00:00 17.4 6 Este 13 Nordeste 0 -- -- 79
2019-09-21 09:00:00 17.9 5 Este 16 Sudeste 0 -- -- 71
2019-09-21 08:00:00 17.4 11 Este 21 Nordeste 0 -- -- 73
2019-09-21 07:00:00 16.6 9 Nordeste 17 Nordeste 0 -- -- 80
2019-09-21 06:00:00 17 3 Este 14 Este 0 -- -- 81
2019-09-21 05:00:00 17 7 Este 15 Este 0 -- -- 82
2019-09-21 04:00:00 17.3 4 Nordeste 16 Sudeste 0 -- -- 81
2019-09-21 03:00:00 17.6 11 Nordeste 22 Nordeste 0 -- -- 80
2019-09-21 02:00:00 17.1 4 Nordeste 8 Este 0 -- -- 86
2019-09-21 01:00:00 17.7 3 Nordeste 6 Este 0 -- -- 85
2019-09-21 00:00:00 18.6 0 Calma 5 Sudoeste 0 -- -- 82
2019-09-20 23:00:00 18.9 4 Sur 11 Sudoeste 0 -- -- 80
2019-09-20 22:00:00 19.5 7 Oeste 14 Sudoeste 0 -- -- 76
2019-09-20 21:00:00 20.7 9 Oeste 16 Sudoeste 0 -- -- 71
2019-09-20 20:00:00 21.9 4 Oeste 13 Sudoeste 0 -- -- 63
2019-09-20 19:00:00 23.9 4 Sudoeste 14 Sudoeste 0 -- -- 56
2019-09-20 18:00:00 24.8 7 Oeste 16 Sudoeste 0 -- -- 52
2019-09-20 17:00:00 25.3 5 Oeste 15 Sudoeste 0 -- -- 47
2019-09-20 16:00:00 24.9 8 Oeste 15 Sudoeste 0 -- -- 48
2019-09-20 15:00:00 24.2 6 Sudoeste 22 Oeste 0 -- -- 52
2019-09-20 14:00:00 23.6 8 Sudoeste 20 Oeste 0 -- -- 54
2019-09-20 13:00:00 23.3 7 Sudoeste 19 Sudoeste 0 -- -- 56
2019-09-20 12:00:00 22.1 8 Sur 15 Sudoeste 0 -- -- 56
2019-09-20 11:00:00 21.4 3 Sudoeste 8 Nordeste 0 -- -- 66
2019-09-20 10:00:00 18.1 5 Este 13 Este 0 -- -- 77
2019-09-20 09:00:00 15.8 7 Este 13 Este 0 -- -- 83
2019-09-20 08:00:00 15.2 6 Este 15 Este 0 -- -- 84
2019-09-20 07:00:00 15.4 9 Este 17 Nordeste 0 -- -- 82
2019-09-20 06:00:00 15.7 10 Nordeste 17 Este 0 -- -- 80
2019-09-20 05:00:00 16.1 9 Este 23 Nordeste 0 -- -- 79
2019-09-20 04:00:00 16.5 9 Este 21 Este 0 -- -- 77
2019-09-20 03:00:00 16.5 11 Nordeste 22 Nordeste 0 -- -- 78
2019-09-20 02:00:00 16.2 10 Este 22 Este 0 -- -- 81
2019-09-20 01:00:00 16 12 Este 21 Este 0 -- -- 85
2019-09-20 00:00:00 15.9 7 Nordeste 13 Nordeste 0 -- -- 90
2019-09-19 23:00:00 16.2 3 Sudoeste 13 Sudoeste 0.2 -- -- 91
2019-09-19 22:00:00 16.3 7 Este 22 Nordeste 2.6 -- -- 85
2019-09-19 21:00:00 16.5 13 Nordeste 23 Nordeste 1.8 -- -- 89
2019-09-19 20:00:00 16.9 7 Nordeste 14 Este 1.6 -- -- 87
2019-09-19 19:00:00 17.2 8 Este 21 Nordeste 0.2 -- -- 88
2019-09-19 18:00:00 18.2 11 Nordeste 27 Nordeste 11.4 -- -- 84
2019-09-19 17:00:00 24 12 Nordeste 30 Nordeste 0 -- -- 51
2019-09-19 16:00:00 27.1 17 Oeste 29 Sudoeste 0 -- -- 43
2019-09-19 15:00:00 26.6 18 Sudoeste 28 Sudoeste 0 -- -- 47
2019-09-19 14:00:00 25.4 13 Sudoeste 21 Sudoeste 0 -- -- 52
2019-09-19 13:00:00 24.1 9 Sudoeste 19 Sudoeste 0 -- -- 54
2019-09-19 12:00:00 22.6 5 Sudeste 12 Sudoeste 0 -- -- 58
2019-09-19 11:00:00 21 3 Este 8 Este 0 -- -- 61
2019-09-19 10:00:00 17.1 4 Este 10 Este 0 -- -- 73
2019-09-19 09:00:00 15.2 7 Este 17 Este 0 -- -- 78
2019-09-19 08:00:00 14.3 10 Este 17 Este 0 -- -- 81
2019-09-19 07:00:00 14.2 9 Este 14 Nordeste 0 -- -- 82
2019-09-19 06:00:00 15 8 Este 15 Este 0 -- -- 78
2019-09-19 05:00:00 14.9 10 Este 16 Este 0 -- -- 80
2019-09-19 04:00:00 15.3 8 Este 14 Este 0 -- -- 80
2019-09-19 03:00:00 15.3 8 Este 17 Este 0 -- -- 82
2019-09-19 02:00:00 15.9 6 Nordeste 17 Nordeste 0 -- -- 79
2019-09-19 01:00:00 16.8 10 Nordeste 17 Nordeste 0 -- -- 75
2019-09-19 00:00:00 18.5 4 Oeste 38 Nordeste 0 -- -- 71
2019-09-18 23:00:00 18.6 14 Nordeste 23 Este 0 -- -- 65
2019-09-18 22:00:00 17.5 10 Este 22 Sudeste 0.2 -- -- 73
2019-09-18 21:00:00 17.4 9 Este 30 Nordeste 0 -- -- 73
2019-09-18 20:00:00 17.2 18 Nordeste 32 Este 1.2 -- -- 73
2019-09-18 19:00:00 18.4 10 Nordeste 22 Sudeste 2.8 -- -- 73
2019-09-18 18:00:00 22.8 12 Este 34 Nordeste 1 -- -- 56
2019-09-18 17:00:00 26.3 9 Este 36 Nordeste 0 -- -- 37
2019-09-18 16:00:00 29.6 18 Oeste 30 Sudoeste 0 -- -- 35
2019-09-18 15:00:00 29 19 Sudoeste 27 Oeste 0 -- -- 38
2019-09-18 14:00:00 28.6 16 Sudoeste 24 Sur 0 -- -- 41
2019-09-18 13:00:00 27.8 10 Sudoeste 20 Sudoeste 0 -- -- 43
2019-09-18 12:00:00 26.7 6 Sudoeste 13 Sudoeste 0 -- -- 47
2019-09-18 11:00:00 25.4 5 Sudoeste 10 Sudoeste 0 -- -- 48
2019-09-18 10:00:00 21.5 4 Este 11 Nordeste 0 -- -- 57
2019-09-18 09:00:00 18.8 8 Este 15 Este 0 -- -- 61
2019-09-18 08:00:00 17.5 8 Este 14 Este 0 -- -- 66
2019-09-18 07:00:00 18 7 Este 15 Este 0 -- -- 65
2019-09-18 06:00:00 17.9 8 Este 15 Este 0 -- -- 68
2019-09-18 05:00:00 17.8 6 Este 13 Sudoeste 0 -- -- 71
2019-09-18 04:00:00 18.4 6 Este 12 Este 0 -- -- 69
2019-09-18 03:00:00 18.5 3 Nordeste 8 Este 0 -- -- 70
2019-09-18 02:00:00 18.8 3 Nordeste 10 Este 0 -- -- 68
2019-09-18 01:00:00 18.9 4 Nordeste 9 Este 0 -- -- 69
2019-09-18 00:00:00 19.1 6 Este 10 Este 0 -- -- 70
2019-09-17 23:00:00 20.1 4 Este 8 Este 0 -- -- 65
2019-09-17 22:00:00 21.5 3 Este 5 Este 0 -- -- 60
2019-09-17 21:00:00 22.9 0 Calma 8 Sudoeste 0 -- -- 55